createdAt,value
2023-03-02T00:00:37.663Z,0.3
2023-03-02T00:15:38.513Z,0.3
2023-03-02T00:30:41.622Z,0.3
2023-03-02T00:45:39.272Z,0.3
2023-03-02T01:00:39.465Z,0.3
2023-03-02T01:15:40.800Z,0.2
2023-03-02T01:30:42.557Z,0.2
2023-03-02T01:45:45.811Z,0.2
2023-03-02T02:00:43.458Z,0.2
2023-03-02T02:01:27.452Z,0.2
2023-03-02T02:15:43.945Z,0.2
2023-03-02T02:30:43.879Z,0.3
2023-03-02T02:45:45.642Z,0.2
2023-03-02T03:00:48.410Z,0.2
2023-03-02T03:15:46.480Z,0.2
2023-03-02T03:30:49.692Z,0.2
2023-03-02T03:45:47.781Z,0
2023-03-02T04:00:48.416Z,0
2023-03-02T04:15:49.181Z,-0.1
2023-03-02T04:30:49.660Z,0
2023-03-02T04:45:49.767Z,-0.1
2023-03-02T05:00:51.209Z,-0.1
2023-03-02T05:15:54.118Z,-0.1
2023-03-02T05:30:52.255Z,-0.1
2023-03-02T05:45:55.180Z,-0.1
2023-03-02T05:52:37.137Z,0
2023-03-02T06:07:40.046Z,0
2023-03-02T06:22:38.077Z,-0.1
2023-03-02T06:37:40.109Z,-0.1
2023-03-02T06:52:39.474Z,-0.1
2023-03-02T07:07:41.340Z,-0.1
2023-03-02T07:22:41.343Z,0
2023-03-02T07:37:42.365Z,0.1
2023-03-02T07:52:42.844Z,0.8
2023-03-02T08:07:44.063Z,1.2
2023-03-02T08:22:43.699Z,1.3
2023-03-02T08:37:49.052Z,1.5
2023-03-02T08:52:47.505Z,1.5
2023-03-02T09:07:45.407Z,1.6
2023-03-02T09:22:45.525Z,2.1
2023-03-02T09:37:59.440Z,2.1
2023-03-02T10:07:59.674Z,1.9
2023-03-02T10:23:32.602Z,1.6
2023-03-02T10:38:00.899Z,2
2023-03-02T12:22:56.842Z,2.2
2023-03-02T12:37:55.919Z,3
2023-03-02T12:52:55.496Z,2.8
2023-03-02T13:07:56.740Z,3
2023-03-02T13:22:57.409Z,2.8
2023-03-02T13:37:58.074Z,2.8
2023-03-02T13:53:01.182Z,2.8
2023-03-02T14:08:00.442Z,2.8
2023-03-02T14:23:02.354Z,2.9
2023-03-02T14:38:04.206Z,2.7
2023-03-02T14:53:03.292Z,2.4
2023-03-02T15:08:12.672Z,2.3
2023-03-02T15:23:13.092Z,2.3
2023-03-02T15:38:04.585Z,2
2023-03-02T15:53:19.443Z,2
2023-03-02T16:08:05.358Z,2
2023-03-02T16:38:38.079Z,1.9
2023-03-02T16:53:06.548Z,1.5
2023-03-02T17:08:06.948Z,1.5
2023-03-02T17:23:09.831Z,1.4
2023-03-02T23:00:48.458Z,0.7
2023-03-02T23:15:34.390Z,0.7
2023-03-02T23:30:34.280Z,0.8
2023-03-02T23:45:36.013Z,0.8
